createdAt,value
2019-02-19T00:00:08.549Z,8.50
2019-02-19T00:01:08.473Z,9.00
2019-02-19T00:02:08.394Z,9.10
2019-02-19T00:03:08.321Z,9.00
2019-02-19T00:04:08.210Z,8.70
2019-02-19T00:05:08.339Z,8.50
2019-02-19T00:06:08.034Z,8.50
2019-02-19T00:07:08.178Z,8.90
2019-02-19T00:08:07.864Z,8.90
2019-02-19T00:09:07.953Z,8.40
2019-02-19T00:10:07.692Z,8.40
2019-02-19T00:11:07.609Z,8.40
2019-02-19T00:12:07.804Z,8.50
2019-02-19T00:13:07.435Z,8.10
2019-02-19T00:14:07.349Z,8.50
2019-02-19T00:15:08.583Z,8.30
2019-02-19T00:16:07.178Z,7.80
2019-02-19T00:17:07.118Z,8.20
2019-02-19T00:18:07.196Z,8.40
2019-02-19T00:19:06.924Z,8.60
2019-02-19T00:20:15.607Z,8.10
2019-02-19T00:21:06.762Z,8.50
2019-02-19T00:22:06.692Z,8.80
2019-02-19T00:23:06.825Z,8.70
2019-02-19T00:24:06.495Z,8.80
2019-02-19T00:25:06.408Z,9.30
2019-02-19T00:26:06.434Z,9.40
2019-02-19T00:27:06.240Z,8.90
2019-02-19T00:28:06.275Z,8.80
2019-02-19T00:29:06.068Z,9.00
2019-02-19T00:30:06.255Z,8.80
2019-02-19T00:31:05.903Z,8.60
2019-02-19T00:32:07.091Z,9.00
2019-02-19T00:33:05.739Z,8.40
2019-02-19T00:34:05.874Z,8.70
2019-02-19T00:35:05.552Z,8.90
2019-02-19T00:36:05.704Z,8.80
2019-02-19T00:37:05.382Z,8.50
2019-02-19T00:38:09.618Z,9.30
2019-02-19T00:39:05.212Z,8.80
2019-02-19T00:40:05.304Z,8.90
2019-02-19T00:41:05.040Z,8.20
2019-02-19T00:42:04.956Z,9.20
2019-02-19T00:43:05.153Z,8.80
2019-02-19T00:44:04.789Z,9.00
2019-02-19T00:45:04.699Z,9.40
2019-02-19T00:46:04.638Z,8.80
2019-02-19T00:47:04.527Z,8.90
2019-02-19T00:48:04.468Z,8.30
2019-02-19T00:49:04.359Z,8.70
2019-02-19T00:50:04.452Z,8.50
2019-02-19T00:51:04.187Z,8.60
2019-02-19T00:52:04.362Z,8.60
2019-02-19T00:53:04.025Z,8.50
2019-02-19T00:54:04.170Z,8.70
2019-02-19T00:55:03.843Z,8.50
2019-02-19T00:56:03.758Z,9.10
2019-02-19T00:57:03.891Z,9.30
2019-02-19T00:58:03.604Z,8.60
2019-02-19T00:59:03.506Z,8.80
2019-02-19T01:00:03.598Z,9.20
2019-02-19T01:01:03.330Z,8.90
2019-02-19T01:02:03.246Z,8.30
2019-02-19T01:03:03.448Z,8.70
2019-02-19T01:04:03.075Z,8.80
2019-02-19T01:05:02.988Z,9.00
2019-02-19T01:06:05.073Z,8.60
2019-02-19T01:07:02.815Z,9.00
2019-02-19T01:08:04.481Z,8.60
2019-02-19T01:09:02.734Z,9.30
2019-02-19T01:10:02.564Z,9.40
2019-02-19T01:11:02.473Z,9.10
2019-02-19T01:12:02.653Z,9.10
2019-02-19T01:13:02.305Z,9.10
2019-02-19T01:14:02.231Z,8.90
2019-02-19T01:15:02.265Z,8.80
2019-02-19T01:16:02.047Z,9.20
2019-02-19T01:17:01.963Z,9.30
2019-02-19T01:18:01.981Z,9.40
2019-02-19T01:19:01.815Z,8.80
2019-02-19T01:20:01.892Z,9.40
2019-02-19T01:21:01.619Z,10.20
2019-02-19T01:22:01.701Z,9.50
2019-02-19T01:23:01.445Z,8.70
2019-02-19T01:24:05.636Z,8.90
2019-02-19T01:25:01.275Z,9.00
2019-02-19T01:26:01.189Z,8.40
2019-02-19T01:27:01.122Z,9.10
2019-02-19T01:28:01.019Z,9.30
2019-02-19T01:29:00.948Z,9.00
2019-02-19T01:30:00.938Z,8.90
2019-02-19T01:31:00.763Z,9.00
2019-02-19T01:32:00.677Z,9.50
2019-02-19T01:33:00.649Z,8.90
2019-02-19T01:34:00.517Z,9.50
2019-02-19T01:35:00.458Z,8.30
2019-02-19T01:36:00.331Z,7.90
2019-02-19T01:37:00.474Z,7.60
2019-02-19T01:38:00.167Z,8.00
2019-02-19T01:39:00.310Z,7.90
2019-02-19T01:39:59.989Z,7.70
2019-02-19T01:41:01.116Z,7.80
2019-02-19T01:41:59.820Z,7.40
2019-02-19T01:42:59.731Z,7.10
2019-02-19T01:43:59.736Z,6.90
2019-02-19T01:44:59.560Z,6.70
2019-02-19T01:45:59.476Z,6.90
2019-02-19T01:47:08.118Z,7.10
2019-02-19T01:47:59.303Z,6.90
2019-02-19T01:48:59.363Z,6.90
2019-02-19T01:49:59.132Z,7.40
2019-02-19T01:50:59.136Z,7.20
2019-02-19T01:51:58.961Z,6.70
2019-02-19T01:52:58.943Z,7.20
2019-02-19T01:53:58.790Z,6.70
2019-02-19T01:54:58.790Z,7.10
2019-02-19T01:55:58.620Z,7.00
2019-02-19T01:56:58.561Z,6.50
2019-02-19T01:57:58.449Z,6.80
2019-02-19T01:58:58.578Z,7.10
2019-02-19T01:59:58.290Z,7.00
2019-02-19T02:00:58.384Z,7.10
2019-02-19T02:01:58.110Z,7.40
2019-02-19T02:02:58.194Z,7.00
2019-02-19T02:03:57.939Z,7.50
2019-02-19T02:05:02.130Z,7.50
2019-02-19T02:05:57.769Z,7.50
2019-02-19T02:06:57.683Z,7.20
2019-02-19T02:07:57.820Z,7.20
2019-02-19T02:08:57.515Z,7.50
2019-02-19T02:09:57.445Z,7.20
2019-02-19T02:10:57.432Z,7.00
2019-02-19T02:11:57.259Z,6.70
2019-02-19T02:12:57.175Z,7.10
2019-02-19T02:13:57.093Z,7.20
2019-02-19T02:14:57.082Z,7.50
2019-02-19T02:15:56.920Z,7.40
2019-02-19T02:16:56.837Z,7.30
2019-02-19T02:17:56.751Z,7.50
2019-02-19T02:18:56.870Z,7.20
2019-02-19T02:19:56.594Z,7.80
2019-02-19T02:20:56.499Z,7.70
2019-02-19T02:21:56.481Z,7.90
2019-02-19T02:22:56.328Z,7.70
2019-02-19T02:23:56.291Z,7.60
2019-02-19T02:24:56.173Z,7.70
2019-02-19T02:25:56.307Z,8.40
2019-02-19T02:26:55.992Z,7.40
2019-02-19T02:27:55.903Z,8.20
2019-02-19T02:28:55.918Z,7.90
2019-02-19T02:29:55.751Z,8.10
2019-02-19T02:30:55.659Z,8.30
2019-02-19T02:31:55.733Z,8.40
2019-02-19T02:32:55.480Z,8.30
2019-02-19T02:34:02.100Z,8.80
2019-02-19T02:34:55.327Z,10.30
2019-02-19T02:35:55.355Z,10.30
2019-02-19T02:36:55.144Z,9.50
2019-02-19T02:37:55.059Z,10.00
2019-02-19T02:38:55.178Z,10.60
2019-02-19T02:39:54.902Z,10.60
2019-02-19T02:40:55.166Z,10.40
2019-02-19T02:41:54.777Z,12.60
2019-02-19T02:42:54.640Z,13.80
2019-02-19T02:43:54.791Z,14.40
2019-02-19T02:44:54.484Z,14.90
2019-02-19T02:45:55.626Z,15.70
2019-02-19T02:46:54.297Z,16.60
2019-02-19T02:47:54.409Z,17.00
2019-02-19T02:48:54.126Z,18.60
2019-02-19T02:49:54.248Z,19.20
2019-02-19T02:50:53.960Z,18.50
2019-02-19T02:51:53.879Z,20.10
2019-02-19T02:52:54.853Z,19.50
2019-02-19T02:53:53.707Z,19.20
2019-02-19T02:54:53.637Z,21.00
2019-02-19T02:55:53.644Z,19.70
2019-02-19T02:56:53.456Z,19.00
2019-02-19T02:57:53.370Z,19.60
2019-02-19T02:58:53.524Z,19.90
2019-02-19T02:59:53.215Z,19.60
2019-02-19T03:00:53.270Z,19.30
2019-02-19T03:01:53.036Z,20.20
2019-02-19T03:02:55.130Z,19.50
2019-02-19T03:03:52.865Z,20.30
2019-02-19T03:04:52.920Z,19.90
2019-02-19T03:05:52.700Z,19.50
2019-02-19T03:06:52.697Z,19.20
2019-02-19T03:07:52.525Z,18.90
2019-02-19T03:08:54.556Z,20.00
2019-02-19T03:09:52.365Z,19.40
2019-02-19T03:10:52.346Z,19.60
2019-02-19T03:11:52.192Z,19.30
2019-02-19T03:12:52.106Z,18.70
2019-02-19T03:13:52.132Z,19.60
2019-02-19T03:14:51.943Z,18.00
2019-02-19T03:15:51.870Z,18.30
2019-02-19T03:16:51.947Z,17.70
2019-02-19T03:17:51.686Z,18.60
2019-02-19T03:18:51.600Z,17.80
2019-02-19T03:19:51.766Z,18.40
2019-02-19T03:20:51.449Z,18.00
2019-02-19T03:21:51.348Z,18.00
2019-02-19T03:22:51.377Z,19.00
2019-02-19T03:23:51.182Z,18.70
2019-02-19T03:24:51.098Z,18.60
2019-02-19T03:25:51.220Z,18.50
2019-02-19T03:26:50.931Z,17.80
2019-02-19T03:27:50.842Z,18.40
2019-02-19T03:28:51.007Z,19.30
2019-02-19T03:29:50.685Z,18.40
2019-02-19T03:30:50.611Z,19.00
2019-02-19T03:31:50.578Z,18.90
2019-02-19T03:32:50.426Z,19.00
2019-02-19T03:33:50.342Z,18.60
2019-02-19T03:34:50.433Z,19.00
2019-02-19T03:35:50.186Z,17.90
2019-02-19T03:36:50.093Z,18.10
2019-02-19T03:37:50.253Z,18.60
2019-02-19T03:38:49.918Z,19.30
2019-02-19T03:39:49.833Z,18.10
2019-02-19T03:40:49.894Z,18.90
2019-02-19T03:41:49.666Z,18.60
2019-02-19T03:42:49.582Z,19.00
2019-02-19T03:43:49.676Z,19.60
2019-02-19T03:44:49.413Z,18.90
2019-02-19T03:45:49.520Z,18.90
2019-02-19T03:46:49.246Z,19.10
2019-02-19T03:47:49.246Z,18.40
2019-02-19T03:48:49.081Z,18.50
2019-02-19T03:49:50.128Z,18.70
2019-02-19T03:50:48.924Z,19.10
2019-02-19T03:51:48.913Z,18.80
2019-02-19T03:52:48.739Z,18.00
2019-02-19T03:53:48.721Z,19.40
2019-02-19T03:54:48.573Z,18.40
2019-02-19T03:55:48.767Z,18.60
2019-02-19T03:56:48.403Z,17.60
2019-02-19T03:57:48.320Z,18.40
2019-02-19T03:58:48.349Z,18.20
2019-02-19T03:59:48.152Z,18.30
2019-02-19T04:00:48.081Z,17.70
2019-02-19T04:01:48.162Z,18.80
2019-02-19T04:02:47.896Z,18.20
2019-02-19T04:03:47.834Z,18.00
2019-02-19T04:04:47.976Z,17.50
2019-02-19T04:05:47.658Z,18.20
2019-02-19T04:06:47.573Z,18.40
2019-02-19T04:07:49.639Z,18.20
2019-02-19T04:08:47.389Z,18.20
2019-02-19T04:09:47.310Z,18.00
2019-02-19T04:10:47.438Z,18.60
2019-02-19T04:11:47.139Z,17.70
2019-02-19T04:12:47.054Z,19.80
2019-02-19T04:13:47.221Z,19.20
2019-02-19T04:14:46.894Z,19.40
2019-02-19T04:15:46.815Z,18.40
2019-02-19T04:16:46.833Z,19.40
2019-02-19T04:17:46.640Z,19.00
2019-02-19T04:18:46.551Z,19.20
2019-02-19T04:19:46.647Z,19.40
2019-02-19T04:20:46.391Z,19.70
2019-02-19T04:21:46.296Z,19.20
2019-02-19T04:22:46.466Z,19.80
2019-02-19T04:23:46.125Z,19.20
2019-02-19T04:24:46.274Z,21.20
2019-02-19T04:25:45.971Z,19.80
2019-02-19T04:26:48.130Z,19.00
2019-02-19T04:27:45.791Z,19.30
2019-02-19T04:28:45.703Z,20.60
2019-02-19T04:29:45.693Z,20.00
2019-02-19T04:30:45.544Z,20.30
2019-02-19T04:31:45.447Z,20.40
2019-02-19T04:32:45.511Z,19.80
2019-02-19T04:33:45.280Z,19.50
2019-02-19T04:34:45.202Z,20.20
2019-02-19T04:35:45.358Z,19.60
2019-02-19T04:36:45.029Z,20.40
2019-02-19T04:37:44.942Z,20.70
2019-02-19T04:38:44.934Z,20.50
2019-02-19T04:39:44.774Z,20.60
2019-02-19T04:40:44.692Z,20.80
2019-02-19T04:41:44.785Z,20.40
2019-02-19T04:42:44.524Z,19.90
2019-02-19T04:43:44.437Z,20.90
2019-02-19T04:44:44.596Z,20.60
2019-02-19T04:45:44.272Z,20.80
2019-02-19T04:46:45.437Z,21.20
2019-02-19T04:47:44.096Z,21.00
2019-02-19T04:48:44.186Z,21.20
2019-02-19T04:49:43.927Z,20.60
2019-02-19T04:50:43.898Z,22.10
2019-02-19T04:51:43.775Z,22.00
2019-02-19T04:52:43.683Z,21.60
2019-02-19T04:53:43.744Z,21.20
2019-02-19T04:54:43.509Z,21.60
2019-02-19T04:55:43.466Z,21.30
2019-02-19T04:56:43.460Z,21.50
2019-02-19T04:57:43.258Z,21.70
2019-02-19T04:58:43.168Z,21.20
2019-02-19T04:59:43.243Z,21.50
2019-02-19T05:00:43.002Z,22.60
2019-02-19T05:01:46.083Z,23.10
2019-02-19T05:02:42.827Z,22.10
2019-02-19T05:03:42.746Z,22.70
2019-02-19T05:04:42.793Z,24.50
2019-02-19T05:05:42.578Z,24.50
2019-02-19T05:06:42.508Z,23.80
2019-02-19T05:07:42.610Z,23.80
2019-02-19T05:08:42.330Z,23.40
2019-02-19T05:09:42.416Z,24.00
2019-02-19T05:10:42.163Z,23.80
2019-02-19T05:11:42.257Z,24.40
2019-02-19T05:12:41.986Z,23.80
2019-02-19T05:13:42.032Z,24.70
2019-02-19T05:14:41.822Z,24.10
2019-02-19T05:15:41.841Z,24.60
2019-02-19T05:16:41.661Z,24.80
2019-02-19T05:17:41.563Z,24.50
2019-02-19T05:18:41.656Z,25.60
2019-02-19T05:19:41.394Z,25.80
2019-02-19T05:20:41.309Z,25.30
2019-02-19T05:21:41.374Z,24.20
2019-02-19T05:22:41.144Z,26.30
2019-02-19T05:23:41.061Z,25.00
2019-02-19T05:24:41.165Z,24.60
2019-02-19T05:25:40.887Z,25.50
2019-02-19T05:26:40.818Z,25.20
2019-02-19T05:27:40.975Z,25.60
2019-02-19T05:28:40.634Z,27.30
2019-02-19T05:29:40.557Z,25.50
2019-02-19T05:30:43.121Z,26.90
2019-02-19T05:31:40.397Z,26.70
2019-02-19T05:32:40.309Z,25.80
2019-02-19T05:33:40.328Z,25.70
2019-02-19T05:34:40.130Z,26.10
2019-02-19T05:35:40.049Z,25.70
2019-02-19T05:36:39.976Z,27.00
2019-02-19T05:37:39.882Z,27.60
2019-02-19T05:38:39.790Z,27.40
2019-02-19T05:39:39.707Z,27.10
2019-02-19T05:40:39.628Z,26.70
2019-02-19T05:41:39.556Z,27.50
2019-02-19T05:42:39.456Z,27.50
2019-02-19T05:43:39.378Z,26.90
2019-02-19T05:44:39.283Z,27.20
2019-02-19T05:45:39.203Z,26.20
2019-02-19T05:46:39.139Z,27.70
2019-02-19T05:47:39.032Z,30.70
2019-02-19T05:48:38.952Z,27.80
2019-02-19T05:49:38.869Z,28.10
2019-02-19T05:50:38.779Z,36.10
2019-02-19T05:51:38.707Z,34.60
2019-02-19T05:52:38.616Z,32.20
2019-02-19T05:53:38.525Z,35.80
2019-02-19T05:54:38.445Z,39.40
2019-02-19T05:55:38.367Z,30.20
2019-02-19T05:56:38.296Z,35.50
2019-02-19T05:57:38.198Z,34.60
2019-02-19T05:58:38.107Z,33.10
2019-02-19T05:59:38.017Z,33.10
2019-02-19T06:00:37.935Z,32.80
2019-02-19T06:01:37.871Z,32.30
2019-02-19T06:02:37.771Z,33.40
2019-02-19T06:03:37.679Z,32.80
2019-02-19T06:04:37.600Z,31.40
2019-02-19T06:05:37.514Z,33.60
2019-02-19T06:06:37.446Z,32.70
2019-02-19T06:07:37.340Z,32.00
2019-02-19T06:08:37.257Z,32.80
2019-02-19T06:09:37.181Z,31.50
2019-02-19T06:10:37.090Z,30.50
2019-02-19T06:11:37.008Z,31.40
2019-02-19T06:12:36.945Z,30.70
2019-02-19T06:13:36.833Z,31.60
2019-02-19T06:14:36.748Z,29.40
2019-02-19T06:15:36.669Z,30.00
2019-02-19T06:16:36.581Z,30.30
2019-02-19T06:17:36.517Z,30.00
2019-02-19T06:18:36.419Z,30.10
2019-02-19T06:19:36.328Z,31.50
2019-02-19T06:20:36.249Z,30.70
2019-02-19T06:21:36.158Z,32.00
2019-02-19T06:22:36.092Z,31.40
2019-02-19T06:23:35.986Z,30.40
2019-02-19T06:24:35.950Z,32.20
2019-02-19T06:25:35.826Z,32.40
2019-02-19T06:26:35.735Z,31.40
2019-02-19T06:27:35.662Z,33.30
2019-02-19T06:28:35.570Z,30.70
2019-02-19T06:29:35.479Z,30.70
2019-02-19T06:30:35.404Z,31.00
2019-02-19T06:31:35.309Z,33.00
2019-02-19T06:32:35.245Z,30.20
2019-02-19T06:33:35.140Z,31.60
2019-02-19T06:34:35.054Z,29.60
2019-02-19T06:35:34.977Z,29.50
2019-02-19T06:36:34.886Z,28.90
2019-02-19T06:37:34.820Z,28.80
2019-02-19T06:38:34.727Z,28.70
2019-02-19T06:39:34.631Z,29.40
2019-02-19T06:40:34.551Z,27.80
2019-02-19T06:41:34.480Z,28.00
2019-02-19T06:42:34.394Z,29.00
2019-02-19T06:43:34.293Z,28.60
2019-02-19T06:44:34.216Z,27.90
2019-02-19T06:45:34.124Z,28.40
2019-02-19T06:46:34.043Z,29.30
2019-02-19T06:47:33.978Z,28.30
2019-02-19T06:48:33.870Z,27.80
2019-02-19T06:49:33.796Z,28.40
2019-02-19T06:50:33.708Z,29.70
2019-02-19T06:51:33.616Z,28.40
2019-02-19T06:52:33.551Z,28.70
2019-02-19T06:53:33.448Z,29.00
2019-02-19T06:54:33.367Z,28.50
2019-02-19T06:55:33.276Z,27.90
2019-02-19T06:56:33.197Z,28.90
2019-02-19T06:57:33.126Z,28.00
2019-02-19T06:58:33.023Z,27.90
2019-02-19T06:59:32.961Z,28.40
2019-02-19T07:00:32.854Z,27.60
2019-02-19T07:01:32.780Z,28.00
2019-02-19T07:02:32.703Z,27.70
2019-02-19T07:03:32.628Z,27.70
2019-02-19T07:04:32.515Z,27.50
2019-02-19T07:05:32.436Z,27.70
2019-02-19T07:06:32.345Z,26.80
2019-02-19T07:07:32.275Z,27.10
2019-02-19T07:08:32.187Z,26.30
2019-02-19T07:09:32.093Z,26.00
2019-02-19T07:10:32.012Z,26.30
2019-02-19T07:11:31.921Z,26.00
2019-02-19T07:12:31.859Z,27.00
2019-02-19T07:13:31.754Z,25.10
2019-02-19T07:14:31.668Z,25.90
2019-02-19T07:15:31.588Z,26.60
2019-02-19T07:16:31.499Z,24.80
2019-02-19T07:17:31.429Z,24.40
2019-02-19T07:18:31.337Z,25.40
2019-02-19T07:19:31.246Z,24.90
2019-02-19T07:20:31.163Z,24.20
2019-02-19T07:21:31.082Z,25.30
2019-02-19T07:22:31.029Z,24.60
2019-02-19T07:23:30.907Z,25.70
2019-02-19T07:24:30.829Z,25.10
2019-02-19T07:25:30.737Z,23.90
2019-02-19T07:26:30.654Z,25.00
2019-02-19T07:27:30.587Z,24.80
2019-02-19T07:28:30.486Z,24.90
2019-02-19T07:29:30.409Z,24.80
2019-02-19T07:30:30.324Z,24.30
2019-02-19T07:31:30.233Z,24.90
2019-02-19T07:32:30.173Z,24.40
2019-02-19T07:33:30.065Z,32.30
2019-02-19T07:34:29.982Z,24.50
2019-02-19T07:35:29.927Z,24.30
2019-02-19T07:36:29.817Z,24.20
2019-02-19T07:37:29.741Z,25.40
2019-02-19T07:38:29.646Z,24.70
2019-02-19T07:39:29.560Z,25.10
2019-02-19T07:40:29.481Z,30.30
2019-02-19T07:41:29.387Z,28.80
2019-02-19T07:42:29.343Z,26.20
2019-02-19T07:43:29.216Z,27.00
2019-02-19T07:44:29.133Z,24.90
2019-02-19T07:45:29.054Z,24.50
2019-02-19T07:46:28.963Z,25.10
2019-02-19T07:47:28.889Z,24.20
2019-02-19T07:48:28.815Z,24.20
2019-02-19T07:49:28.709Z,24.00
2019-02-19T07:50:28.642Z,24.20
2019-02-19T07:51:28.542Z,23.80
2019-02-19T07:52:28.463Z,24.70
2019-02-19T07:53:28.386Z,25.10
2019-02-19T07:54:28.287Z,24.00
2019-02-19T07:55:28.208Z,23.60
2019-02-19T07:56:28.120Z,24.00
2019-02-19T07:57:28.036Z,23.70
2019-02-19T07:58:27.969Z,24.20
2019-02-19T07:59:27.867Z,24.60
2019-02-19T08:00:27.782Z,24.20
2019-02-19T08:01:27.704Z,23.70
2019-02-19T08:02:27.612Z,23.30
2019-02-19T08:03:27.543Z,23.50
2019-02-19T08:04:27.469Z,22.90
2019-02-19T08:05:27.361Z,22.80
2019-02-19T08:06:27.282Z,23.40
2019-02-19T08:07:27.192Z,23.20
2019-02-19T08:08:27.143Z,23.60
2019-02-19T08:09:27.024Z,22.90
2019-02-19T08:10:26.943Z,23.10
2019-02-19T08:11:26.855Z,34.30
2019-02-19T08:12:26.777Z,25.10
2019-02-19T08:13:26.704Z,26.50
2019-02-19T08:14:28.497Z,26.90
2019-02-19T08:15:26.522Z,34.10
2019-02-19T08:16:26.444Z,24.10
2019-02-19T08:17:33.058Z,42.00
2019-02-19T08:18:26.287Z,55.80
2019-02-19T08:19:26.183Z,23.40
2019-02-19T08:20:26.095Z,56.80
2019-02-19T08:21:26.027Z,23.10
2019-02-19T08:22:25.930Z,25.20
2019-02-19T08:23:25.866Z,52.00
2019-02-19T08:24:25.771Z,30.20
2019-02-19T08:25:25.679Z,23.40
2019-02-19T08:26:25.599Z,22.20
2019-02-19T08:27:25.510Z,22.80
2019-02-19T08:28:25.445Z,22.70
2019-02-19T08:29:25.353Z,23.50
2019-02-19T08:30:25.261Z,22.20
2019-02-19T08:31:25.173Z,23.40
2019-02-19T08:32:25.094Z,23.00
2019-02-19T08:33:25.022Z,24.00
2019-02-19T08:34:24.920Z,22.50
2019-02-19T08:35:24.841Z,22.40
2019-02-19T08:36:24.756Z,21.40
2019-02-19T08:37:24.677Z,21.90
2019-02-19T08:38:24.597Z,22.60
2019-02-19T08:39:24.498Z,21.80
2019-02-19T08:40:24.421Z,22.20
2019-02-19T08:41:24.334Z,21.20
2019-02-19T08:42:24.247Z,22.00
2019-02-19T08:43:24.181Z,22.10
2019-02-19T08:44:24.078Z,21.20
2019-02-19T08:45:24.001Z,21.70
2019-02-19T08:46:23.910Z,22.20
2019-02-19T08:47:23.834Z,20.80
2019-02-19T08:48:23.755Z,21.60
2019-02-19T08:49:23.659Z,21.60
2019-02-19T08:50:23.580Z,21.70
2019-02-19T08:51:23.491Z,20.40
2019-02-19T08:52:23.408Z,20.90
2019-02-19T08:53:23.345Z,21.20
2019-02-19T08:54:23.248Z,21.90
2019-02-19T08:55:23.155Z,20.20
2019-02-19T08:56:23.076Z,19.90
2019-02-19T08:57:22.985Z,19.60
2019-02-19T08:58:22.921Z,19.10
2019-02-19T08:59:22.834Z,18.60
2019-02-19T09:00:22.738Z,17.60
2019-02-19T09:01:22.661Z,18.30
2019-02-19T09:02:22.573Z,16.80
2019-02-19T09:03:22.515Z,17.30
2019-02-19T09:04:22.410Z,17.10
2019-02-19T09:05:22.325Z,17.30
2019-02-19T09:06:22.249Z,16.80
2019-02-19T09:07:22.158Z,16.40
2019-02-19T09:08:22.098Z,16.20
2019-02-19T09:09:22.001Z,16.40
2019-02-19T09:10:21.916Z,16.10
2019-02-19T09:11:21.840Z,16.80
2019-02-19T09:12:21.748Z,16.50
2019-02-19T09:13:21.675Z,16.60
2019-02-19T09:14:21.605Z,15.20
2019-02-19T09:15:21.507Z,15.50
2019-02-19T09:16:21.433Z,15.10
2019-02-19T09:17:21.344Z,15.10
2019-02-19T09:18:21.262Z,14.90
2019-02-19T09:19:21.201Z,14.90
2019-02-19T09:20:21.102Z,14.30
2019-02-19T09:21:21.021Z,14.40
2019-02-19T09:22:20.952Z,14.20
2019-02-19T09:23:20.859Z,13.80
2019-02-19T09:24:20.806Z,13.50
2019-02-19T09:25:20.715Z,14.20
2019-02-19T09:26:20.617Z,14.20
2019-02-19T09:27:20.542Z,13.40
2019-02-19T09:28:20.457Z,13.10
2019-02-19T09:29:20.415Z,13.60
2019-02-19T09:30:20.295Z,13.80
2019-02-19T09:31:20.224Z,11.60
2019-02-19T09:32:20.136Z,12.80
2019-02-19T09:33:20.064Z,13.80
2019-02-19T09:34:19.988Z,13.00
2019-02-19T09:35:19.899Z,13.10
2019-02-19T09:36:19.813Z,12.10
2019-02-19T09:37:19.743Z,12.40
2019-02-19T09:38:19.657Z,11.80
2019-02-19T09:39:19.591Z,11.70
2019-02-19T09:40:19.492Z,12.20
2019-02-19T09:41:19.421Z,11.50
2019-02-19T09:42:19.330Z,11.40
2019-02-19T09:43:19.255Z,10.80
2019-02-19T09:44:19.183Z,10.40
2019-02-19T09:45:19.089Z,10.60
2019-02-19T09:46:19.024Z,11.30
2019-02-19T09:47:18.930Z,11.00
2019-02-19T09:48:18.851Z,10.50
2019-02-19T09:49:18.790Z,9.80
2019-02-19T09:50:18.690Z,9.10
2019-02-19T09:51:18.612Z,10.50
2019-02-19T09:52:18.528Z,9.90
2019-02-19T09:53:18.464Z,8.70
2019-02-19T09:54:18.378Z,8.80
2019-02-19T09:55:18.279Z,9.10
2019-02-19T09:56:18.207Z,8.00
2019-02-19T09:57:18.124Z,8.50
2019-02-19T09:58:18.082Z,8.50
2019-02-19T09:59:17.980Z,8.70
2019-02-19T10:00:17.910Z,9.40
2019-02-19T10:01:17.808Z,8.00
2019-02-19T10:02:17.717Z,8.10
2019-02-19T10:03:17.642Z,8.80
2019-02-19T10:04:17.570Z,8.10
2019-02-19T10:05:17.483Z,8.50
2019-02-19T10:06:17.397Z,7.80
2019-02-19T10:07:19.255Z,8.20
2019-02-19T10:08:17.235Z,7.50
2019-02-19T10:09:17.178Z,10.10
2019-02-19T10:10:17.073Z,8.90
2019-02-19T10:11:17.001Z,10.20
2019-02-19T10:12:16.912Z,8.60
2019-02-19T10:13:16.838Z,7.80
2019-02-19T10:14:16.766Z,8.00
2019-02-19T10:15:16.672Z,8.10
2019-02-19T10:16:16.597Z,8.20
2019-02-19T10:17:16.521Z,8.40
2019-02-19T10:18:16.431Z,7.90
2019-02-19T10:19:16.372Z,8.10
2019-02-19T10:20:16.271Z,7.90
2019-02-19T10:21:16.192Z,7.80
2019-02-19T10:22:16.119Z,7.90
2019-02-19T10:23:16.032Z,7.20
2019-02-19T10:24:15.968Z,7.60
2019-02-19T10:25:15.881Z,7.20
2019-02-19T10:26:15.793Z,6.90
2019-02-19T10:27:15.714Z,7.30
2019-02-19T10:28:15.639Z,7.60
2019-02-19T10:29:15.571Z,7.40
2019-02-19T10:30:15.477Z,9.40
2019-02-19T10:31:15.398Z,8.50
2019-02-19T10:32:15.313Z,8.20
2019-02-19T10:33:15.264Z,8.80
2019-02-19T10:34:15.168Z,8.00
2019-02-19T10:35:15.083Z,8.50
2019-02-19T10:36:14.994Z,8.50
2019-02-19T10:37:14.919Z,8.00
2019-02-19T10:38:14.833Z,8.50
2019-02-19T10:39:14.772Z,8.90
2019-02-19T10:40:14.673Z,8.50
2019-02-19T10:41:14.594Z,7.60
2019-02-19T10:42:14.521Z,8.40
2019-02-19T10:43:14.434Z,8.10
2019-02-19T10:44:14.388Z,7.40
2019-02-19T10:45:14.281Z,8.40
2019-02-19T10:46:14.194Z,7.60
2019-02-19T10:47:14.124Z,8.80
2019-02-19T10:48:19.017Z,11.50
2019-02-19T10:49:13.960Z,9.10
2019-02-19T10:50:13.894Z,11.30
2019-02-19T10:51:13.800Z,13.30
2019-02-19T10:52:13.714Z,11.00
2019-02-19T10:53:13.641Z,10.40
2019-02-19T10:54:13.562Z,11.30
2019-02-19T10:55:13.488Z,10.20
2019-02-19T10:56:13.399Z,9.20
2019-02-19T10:57:13.317Z,8.40
2019-02-19T10:58:13.243Z,9.30
2019-02-19T10:59:13.159Z,11.00
2019-02-19T11:00:13.087Z,8.70
2019-02-19T11:01:12.994Z,8.00
2019-02-19T11:02:12.918Z,8.00
2019-02-19T11:03:12.834Z,8.00
2019-02-19T11:04:12.752Z,7.60
2019-02-19T11:05:12.692Z,7.70
2019-02-19T11:06:12.593Z,7.50
2019-02-19T11:07:12.512Z,8.10
2019-02-19T11:08:12.439Z,7.20
2019-02-19T11:09:12.354Z,7.00
2019-02-19T11:10:13.504Z,7.30
2019-02-19T11:11:12.221Z,8.90
2019-02-19T11:12:12.118Z,9.20
2019-02-19T11:13:12.050Z,7.60
2019-02-19T11:14:11.957Z,7.70
2019-02-19T11:15:11.889Z,8.00
2019-02-19T11:16:11.801Z,7.40
2019-02-19T11:17:11.718Z,7.80
2019-02-19T11:18:11.636Z,7.00
2019-02-19T11:19:11.564Z,7.10
2019-02-19T11:20:11.489Z,7.00
2019-02-19T11:21:19.403Z,6.90
2019-02-19T11:22:11.318Z,7.10
2019-02-19T11:23:11.244Z,6.90
2019-02-19T11:24:11.156Z,7.20
2019-02-19T11:25:11.100Z,7.80
2019-02-19T11:26:10.995Z,8.30
2019-02-19T11:27:10.917Z,8.20
2019-02-19T11:28:10.842Z,7.30
2019-02-19T11:29:10.754Z,7.00
2019-02-19T11:30:10.704Z,7.40
2019-02-19T11:31:10.599Z,7.90
2019-02-19T11:32:10.509Z,8.20
2019-02-19T11:33:10.432Z,8.30
2019-02-19T11:34:10.355Z,7.80
2019-02-19T11:35:10.283Z,7.80
2019-02-19T11:36:10.188Z,8.60
2019-02-19T11:37:10.131Z,7.80
2019-02-19T11:38:10.026Z,7.60
2019-02-19T11:39:09.946Z,7.50
2019-02-19T11:40:09.890Z,7.30
2019-02-19T11:41:09.786Z,7.20
2019-02-19T11:42:09.710Z,7.70
2019-02-19T11:43:09.622Z,7.70
2019-02-19T11:44:09.544Z,7.60
2019-02-19T11:45:09.475Z,7.60
2019-02-19T11:46:09.385Z,7.20
2019-02-19T11:47:09.301Z,7.30
2019-02-19T11:48:09.223Z,7.50
2019-02-19T11:49:09.136Z,7.60
2019-02-19T11:50:09.075Z,7.80
2019-02-19T11:51:08.976Z,8.00
2019-02-19T11:52:08.894Z,7.40
2019-02-19T11:53:08.818Z,7.80
2019-02-19T11:54:08.731Z,7.20
2019-02-19T11:55:08.666Z,7.00
2019-02-19T11:56:08.574Z,7.20
2019-02-19T11:57:08.492Z,7.00
2019-02-19T11:58:08.411Z,7.60
2019-02-19T11:59:08.814Z,6.60
2019-02-19T12:00:08.258Z,7.40
2019-02-19T12:01:08.168Z,6.90
2019-02-19T12:02:08.080Z,7.70
2019-02-19T12:03:08.007Z,7.50
2019-02-19T12:04:07.935Z,7.60
2019-02-19T12:05:07.850Z,7.10
2019-02-19T12:06:07.754Z,7.20
2019-02-19T12:07:07.679Z,6.40
2019-02-19T12:08:07.592Z,7.20
2019-02-19T12:09:07.518Z,6.90
2019-02-19T12:10:07.445Z,8.00
2019-02-19T12:11:07.357Z,7.50
2019-02-19T12:12:07.271Z,7.40
2019-02-19T12:13:07.192Z,7.10
2019-02-19T12:14:07.104Z,6.40
2019-02-19T12:15:07.056Z,6.40
2019-02-19T12:16:06.942Z,7.00
2019-02-19T12:17:06.865Z,8.50
2019-02-19T12:18:06.779Z,7.30
2019-02-19T12:19:06.704Z,7.10
2019-02-19T12:20:06.617Z,6.00
2019-02-19T12:21:06.547Z,5.60
2019-02-19T12:22:06.460Z,5.50
2019-02-19T12:23:06.377Z,5.30
2019-02-19T12:24:06.290Z,5.60
2019-02-19T12:25:06.215Z,5.30
2019-02-19T12:26:06.140Z,5.30
2019-02-19T12:27:08.694Z,5.40
2019-02-19T12:28:05.961Z,5.20
2019-02-19T12:29:05.888Z,5.20
2019-02-19T12:30:05.803Z,5.20
2019-02-19T12:31:05.742Z,5.50
2019-02-19T12:32:05.639Z,5.30
2019-02-19T12:33:05.565Z,4.90
2019-02-19T12:34:05.477Z,5.00
2019-02-19T12:35:05.395Z,4.90
2019-02-19T12:36:05.323Z,5.00
2019-02-19T12:37:05.242Z,5.10
2019-02-19T12:38:05.150Z,5.40
2019-02-19T12:39:05.097Z,5.30
2019-02-19T12:40:04.983Z,5.90
2019-02-19T12:41:04.938Z,5.50
2019-02-19T12:42:04.820Z,5.60
2019-02-19T12:43:04.748Z,5.20
2019-02-19T12:44:04.690Z,5.90
2019-02-19T12:45:04.582Z,5.70
2019-02-19T12:46:04.508Z,5.40
2019-02-19T12:47:04.413Z,5.20
2019-02-19T12:48:04.334Z,5.60
2019-02-19T12:49:04.256Z,5.30
2019-02-19T12:50:04.168Z,5.40
2019-02-19T12:51:04.100Z,5.20
2019-02-19T12:52:04.006Z,5.60
2019-02-19T12:53:04.118Z,5.30
2019-02-19T12:54:03.853Z,4.90
2019-02-19T12:55:03.926Z,4.90
2019-02-19T12:56:03.694Z,5.00
2019-02-19T12:57:03.736Z,4.80
2019-02-19T12:58:03.517Z,4.50
2019-02-19T12:59:03.543Z,4.40
2019-02-19T13:00:03.354Z,4.50
2019-02-19T13:01:03.293Z,4.60
2019-02-19T13:02:03.207Z,4.90